Time;durP1;ratioP1;P1;durP2;ratioP2;P2;SDS_P1;SDS_P2;PMS_P1;PMS_P2;Temp;Humidity;BMP_temperature;BMP_pressure;BME280_temperature;BME280_humidity;BME280_pressure;Samples;Min_cycle;Max_cycle;Signal;HPM_P1;HPM_P2
2021/12/07 00:02:20;;;;;;;;;;;;;;;1.99;59.29;99155.19;4474059;32;20278;-88
2021/12/07 00:04:45;;;;;;;;;;;;;;;1.91;59.28;99151.81;4474166;32;19972;-88
2021/12/07 00:07:10;;;;;;;;;;;;;;;1.90;59.27;99153.53;4474373;32;20019;-88
2021/12/07 00:09:36;;;;;;;;;;;;;;;1.85;59.28;99152.69;4474177;32;19998;-88
2021/12/07 00:12:04;;;;;;;;;;;;;;;1.89;59.27;99159.50;4474099;32;19980;-87
2021/12/07 00:14:35;;;;;;;;;;;;;;;1.79;59.28;99163.00;4474354;32;20298;-88
2021/12/07 00:17:02;;;;;;;;;;;;;;;1.91;59.27;99162.09;4474916;32;19997;-89
2021/12/07 00:19:27;;;;;;;;;;;;;;;1.91;59.28;99160.38;4474621;32;20014;-89
2021/12/07 00:21:52;;;;;;;;;;;;;;;2.01;59.29;99148.31;4474178;32;19977;-89
2021/12/07 00:24:18;;;;;;;;;;;;;;;1.92;59.28;99148.37;4474043;32;20031;-89
2021/12/07 00:26:43;;;;;;;;;;;;;;;1.89;59.27;99164.63;4473908;32;19988;-89
2021/12/07 00:29:09;;;;;;;;;;;;;;;1.87;59.28;99170.63;4473844;32;20003;-89
2021/12/07 00:31:40;;;;;;;;;;;;;;;1.92;59.28;99177.47;4474445;32;20012;-89
2021/12/07 00:34:27;;;;;;;;;;;;;;;1.64;59.27;99178.47;4474845;32;19980;-89
2021/12/07 00:36:53;;;;;;;;;;;;;;;1.62;59.26;99178.47;4476622;32;20006;-89
2021/12/07 00:39:19;;;;;;;;;;;;;;;1.67;59.26;99169.06;4474176;32;19988;-88
2021/12/07 00:41:44;;;;;;;;;;;;;;;1.73;59.27;99173.31;4473973;32;19977;-89
2021/12/07 00:44:09;;;;;;;;;;;;;;;1.70;59.27;99174.19;4473908;32;20347;-88
2021/12/07 00:46:35;;;;;;;;;;;;;;;1.65;59.27;99160.50;4473895;32;20003;-88
2021/12/07 00:49:00;;;;;;;;;;;;;;;1.62;59.26;99165.66;4473963;32;20059;-89
2021/12/07 00:51:25;;;;;;;;;;;;;;;1.48;59.25;99162.31;4473932;32;20029;-88
2021/12/07 00:53:50;;;;;;;;;;;;;;;1.40;59.26;99170.03;4487463;32;20010;-88
2021/12/07 00:56:16;;;;;;;;;;;;;;;1.51;59.26;99164.88;4474060;32;20006;-89
2021/12/07 00:58:41;;;;;;;;;;;;;;;1.49;59.26;99164.03;4473773;32;20119;-88
2021/12/07 01:01:10;;;;;;;;;;;;;;;1.49;59.26;99164.03;4473698;32;19984;-91
2021/12/07 01:03:36;;;;;;;;;;;;;;;1.26;59.25;99171.81;4473459;32;19976;-92
2021/12/07 01:24:57;;;;;;;;;;;;;;;1.25;59.25;99147.03;4486946;32;19999;-89
2021/12/07 01:27:23;;;;;;;;;;;;;;;1.28;59.25;99139.34;4473244;32;24040;-88
2021/12/07 01:29:54;;;;;;;;;;;;;;;1.37;59.25;99141.00;4473578;32;20022;-89
2021/12/07 01:39:32;;;;;;;;;;;;;;;1.28;59.24;99138.47;4486903;32;20053;-89
2021/12/07 01:40:43;;;;;;;;;;;;;;;1.28;59.24;99141.91;4476546;32;20088;-89
2021/12/07 01:51:17;;;;;;;;;;;;;;;1.11;59.24;99149.66;4486836;32;20029;-89
2021/12/07 02:01:44;;;;;;;;;;;;;;;1.21;59.24;99140.22;4486221;32;20007;-89
2021/12/07 02:04:10;;;;;;;;;;;;;;;1.37;59.25;99141.84;4472985;32;19984;-87
2021/12/07 02:06:35;;;;;;;;;;;;;;;1.50;59.26;99147.78;4472987;32;19992;-87
2021/12/07 02:09:00;;;;;;;;;;;;;;;1.53;59.26;99146.03;4486061;32;20317;-88
2021/12/07 02:11:25;;;;;;;;;;;;;;;1.52;59.26;99144.34;4472941;32;20018;-88
2021/12/07 02:16:18;;;;;;;;;;;;;;;1.47;59.25;99146.09;4486966;32;19972;-88
2021/12/07 02:18:43;;;;;;;;;;;;;;;1.71;59.27;99141.69;4475337;32;19988;-89
2021/12/07 02:21:18;;;;;;;;;;;;;;;1.50;59.25;99140.94;4474982;32;20345;-87
2021/12/07 02:23:43;;;;;;;;;;;;;;;1.41;59.26;99140.13;4475011;32;19992;-88
2021/12/07 02:26:08;;;;;;;;;;;;;;;1.33;59.25;99140.16;4474866;32;19990;-88
2021/12/07 02:28:38;;;;;;;;;;;;;;;1.40;59.26;99131.56;4474267;32;20011;-88
2021/12/07 02:31:03;;;;;;;;;;;;;;;1.36;59.25;99134.16;4475520;32;20010;-87
2021/12/07 02:33:29;;;;;;;;;;;;;;;1.48;59.25;99131.56;4475147;32;19981;-88
2021/12/07 02:35:54;;;;;;;;;;;;;;;1.51;59.26;99134.94;4474875;32;20054;-88
2021/12/07 02:38:19;;;;;;;;;;;;;;;1.41;59.25;99129.84;4487815;32;19980;-88
2021/12/07 02:40:44;;;;;;;;;;;;;;;1.46;59.25;99130.72;4474727;32;20047;-89
2021/12/07 02:43:10;;;;;;;;;;;;;;;1.33;59.25;99129.91;4474648;32;19976;-88
2021/12/07 02:45:35;;;;;;;;;;;;;;;1.27;59.25;99121.41;4474326;32;19992;-88
2021/12/07 02:48:00;;;;;;;;;;;;;;;1.25;59.23;99128.25;4474466;32;19985;-88
2021/12/07 02:50:25;;;;;;;;;;;;;;;1.20;59.24;99115.47;4474761;32;20046;-88
2021/12/07 02:52:50;;;;;;;;;;;;;;;1.38;59.25;99120.47;4474860;32;20337;-88
2021/12/07 02:55:16;;;;;;;;;;;;;;;1.45;59.25;99119.59;4474606;32;19995;-87
2021/12/07 02:57:43;;;;;;;;;;;;;;;1.47;59.25;99112.75;4474603;32;20004;-86
2021/12/07 03:00:14;;;;;;;;;;;;;;;1.54;59.26;99103.28;4474949;32;20055;-87
2021/12/07 03:02:46;;;;;;;;;;;;;;;1.46;59.25;99103.34;4475273;32;19969;-86
2021/12/07 03:26:35;;;;;;;;;;;;;;;1.47;59.25;99105.06;4487595;32;20017;-86
2021/12/07 03:29:02;;;;;;;;;;;;;;;1.67;59.27;99104.09;4473936;32;20052;-86
2021/12/07 03:31:27;;;;;;;;;;;;;;;1.63;59.26;99107.50;4473759;32;19992;-87
2021/12/07 03:33:56;;;;;;;;;;;;;;;1.62;59.26;99110.94;4474100;32;20013;-85
2021/12/07 03:36:21;;;;;;;;;;;;;;;1.43;59.25;99118.75;4474705;32;20355;-87
2021/12/07 03:38:46;;;;;;;;;;;;;;;1.52;59.26;99110.16;4474091;32;20023;-87
2021/12/07 03:41:12;;;;;;;;;;;;;;;1.62;59.26;99111.78;4474555;32;20041;-87
2021/12/07 03:43:37;;;;;;;;;;;;;;;1.70;59.27;99104.91;4474338;32;19985;-88
2021/12/07 03:46:03;;;;;;;;;;;;;;;1.78;59.28;99107.41;4474615;32;19981;-87
2021/12/07 03:48:28;;;;;;;;;;;;;;;1.82;59.27;99102.25;4474529;32;19988;-88
2021/12/07 03:50:53;;;;;;;;;;;;;;;1.69;59.26;99105.78;4474217;32;20000;-87
2021/12/07 03:53:18;;;;;;;;;;;;;;;1.81;59.28;99105.66;4474079;32;19980;-88
2021/12/07 03:55:44;;;;;;;;;;;;;;;1.87;59.28;99109.91;4473817;32;20022;-88
2021/12/07 03:58:09;;;;;;;;;;;;;;;1.85;59.28;99109.91;4474307;32;20293;-87
2021/12/07 04:00:35;;;;;;;;;;;;;;;1.81;59.28;99115.94;4474412;32;20034;-88
2021/12/07 04:03:06;;;;;;;;;;;;;;;1.71;59.27;99119.44;4474624;32;20709;-88
2021/12/07 04:05:32;;;;;;;;;;;;;;;1.86;59.28;99115.91;4475070;32;19976;-89
2021/12/07 04:07:57;;;;;;;;;;;;;;;1.69;59.27;99112.62;4474080;32;20007;-88
2021/12/07 04:10:23;;;;;;;;;;;;;;;1.61;59.26;99117.78;4474151;32;20329;-88
2021/12/07 04:12:48;;;;;;;;;;;;;;;1.67;59.27;99114.34;4487586;32;19953;-88
2021/12/07 04:15:14;;;;;;;;;;;;;;;1.56;59.27;99110.97;4487480;32;20210;-88
2021/12/07 04:17:39;;;;;;;;;;;;;;;1.63;59.27;99116.06;4474210;32;20287;-89
2021/12/07 04:20:05;;;;;;;;;;;;;;;1.72;59.27;99110.88;4474512;32;20023;-88
2021/12/07 04:22:31;;;;;;;;;;;;;;;1.80;59.28;99108.25;4474342;32;20055;-88
2021/12/07 04:24:56;;;;;;;;;;;;;;;1.74;59.27;99118.56;4474184;32;19996;-88
2021/12/07 04:27:21;;;;;;;;;;;;;;;1.80;59.27;99113.38;4474225;32;20008;-89
2021/12/07 04:29:46;;;;;;;;;;;;;;;1.75;59.27;99120.28;4474225;32;19988;-87
2021/12/07 04:32:12;;;;;;;;;;;;;;;1.81;59.27;99118.50;4474193;32;20021;-90
2021/12/07 04:34:37;;;;;;;;;;;;;;;1.76;59.27;99132.22;4474175;32;19976;-89
2021/12/07 04:37:02;;;;;;;;;;;;;;;1.66;59.27;99128.03;4487532;32;19988;-89
2021/12/07 04:39:28;;;;;;;;;;;;;;;1.63;59.26;99135.72;4473230;32;20018;-91
2021/12/07 04:41:53;;;;;;;;;;;;;;;1.63;59.25;99125.47;4474050;32;19977;-91
2021/12/07 04:44:22;;;;;;;;;;;;;;;1.44;59.25;99129.88;4473820;32;20003;-90
2021/12/07 04:47:09;;;;;;;;;;;;;;;1.46;59.25;99138.41;4474444;32;19993;-89
2021/12/07 04:58:02;;;;;;;;;;;;;;;1.68;59.27;99144.28;4464885;32;19949;-91
2021/12/07 05:00:28;;;;;;;;;;;;;;;1.46;59.25;99149.50;4473835;32;20008;-87
2021/12/07 05:02:57;;;;;;;;;;;;;;;1.65;59.27;99149.38;4473426;32;19988;-87
2021/12/07 05:05:27;;;;;;;;;;;;;;;1.67;59.27;99152.81;4473983;32;20047;-87
2021/12/07 05:07:54;;;;;;;;;;;;;;;1.66;59.27;99157.09;4473698;32;20004;-87
2021/12/07 05:10:30;;;;;;;;;;;;;;;1.65;59.27;99159.66;4473818;32;20056;-86
2021/12/07 05:39:37;;;;;;;;;;;;;;;1.53;59.26;99161.44;4486856;32;20033;-90
2021/12/07 05:42:02;;;;;;;;;;;;;;;1.52;59.26;99159.72;4473262;32;20325;-88
2021/12/07 05:44:27;;;;;;;;;;;;;;;1.66;59.26;99157.09;4473145;32;20019;-89
2021/12/07 05:46:52;;;;;;;;;;;;;;;1.65;59.27;99160.50;4473010;32;20600;-88
2021/12/07 05:49:18;;;;;;;;;;;;;;;1.66;59.26;99146.00;4472861;32;19999;-87
2021/12/07 05:51:43;;;;;;;;;;;;;;;1.74;59.27;99139.94;4474322;32;20023;-87
2021/12/07 05:54:08;;;;;;;;;;;;;;;1.72;59.27;99148.50;4474319;32;20320;-89
2021/12/07 05:56:33;;;;;;;;;;;;;;;1.69;59.27;99148.53;4474819;32;19977;-89
2021/12/07 05:58:59;;;;;;;;;;;;;;;1.63;59.26;99146.84;4474845;32;19984;-89
2021/12/07 06:01:24;;;;;;;;;;;;;;;1.54;59.25;99149.47;4475055;32;20880;-90
2021/12/07 06:03:49;;;;;;;;;;;;;;;1.37;59.25;99146.13;4474446;32;19996;-90
2021/12/07 06:06:14;;;;;;;;;;;;;;;1.35;59.25;99142.72;4474557;32;20025;-89
2021/12/07 06:08:40;;;;;;;;;;;;;;;1.42;59.26;99139.25;4474193;32;20046;-89
2021/12/07 06:11:05;;;;;;;;;;;;;;;1.35;59.25;99141.00;4474248;32;19988;-89
2021/12/07 06:13:30;;;;;;;;;;;;;;;1.50;59.25;99151.19;4474622;32;20012;-87
2021/12/07 06:15:57;;;;;;;;;;;;;;;1.28;59.25;99147.03;4474849;32;19976;-89
2021/12/07 06:18:22;;;;;;;;;;;;;;;1.36;59.25;99144.41;4474926;32;20007;-88
2021/12/07 06:20:47;;;;;;;;;;;;;;;1.08;59.23;99143.69;4474575;32;20015;-89
2021/12/07 06:23:14;;;;;;;;;;;;;;;1.03;59.24;99141.16;4474239;32;20004;-87
2021/12/07 06:25:39;;;;;;;;;;;;;;;0.88;59.22;99148.88;4487855;32;19968;-89
2021/12/07 06:28:04;;;;;;;;;;;;;;;0.94;59.22;99143.72;4475011;32;20042;-89
2021/12/07 06:30:29;;;;;;;;;;;;;;;1.00;59.23;99146.28;4474118;32;19985;-88
2021/12/07 06:32:55;;;;;;;;;;;;;;;1.12;59.24;99142.81;4474618;32;19991;-89
2021/12/07 06:35:20;;;;;;;;;;;;;;;1.04;59.24;99150.53;4474918;32;20276;-89
2021/12/07 06:37:45;;;;;;;;;;;;;;;1.13;59.24;99153.06;4474480;32;19988;-89
2021/12/07 06:40:11;;;;;;;;;;;;;;;1.07;59.23;99150.53;4474764;32;19989;-90
2021/12/07 06:42:38;;;;;;;;;;;;;;;0.99;59.23;99153.97;4474473;32;19992;-87
2021/12/07 06:45:05;;;;;;;;;;;;;;;1.02;59.22;99156.53;4488069;32;20029;-89
2021/12/07 06:47:30;;;;;;;;;;;;;;;1.09;59.23;99147.97;4474758;32;20056;-90
2021/12/07 06:49:57;;;;;;;;;;;;;;;1.16;59.23;99155.59;4474171;32;23076;-90
2021/12/07 06:52:22;;;;;;;;;;;;;;;1.23;59.24;99152.19;4474808;32;19991;-90
2021/12/07 06:54:47;;;;;;;;;;;;;;;1.15;59.23;99151.34;4475303;32;20020;-90
2021/12/07 06:57:12;;;;;;;;;;;;;;;1.29;59.24;99153.00;4474406;32;19980;-89
2021/12/07 06:59:38;;;;;;;;;;;;;;;1.28;59.25;99156.44;4474505;32;20032;-89
2021/12/07 07:02:03;;;;;;;;;;;;;;;1.31;59.24;99156.41;4474457;32;20000;-89
2021/12/07 07:04:28;;;;;;;;;;;;;;;1.33;59.24;99162.37;4488118;32;20015;-88
2021/12/07 07:06:53;;;;;;;;;;;;;;;1.13;59.23;99171.00;4473823;32;28610;-89
2021/12/07 07:09:18;;;;;;;;;;;;;;;1.18;59.23;99165.84;4474198;32;20619;-89
2021/12/07 07:11:44;;;;;;;;;;;;;;;1.25;59.25;99170.13;4474621;32;20231;-90
2021/12/07 07:14:09;;;;;;;;;;;;;;;1.22;59.24;99176.13;4474303;32;20037;-90
2021/12/07 07:16:34;;;;;;;;;;;;;;;1.17;59.25;99167.56;4474186;32;20012;-90
2021/12/07 07:18:59;;;;;;;;;;;;;;;1.09;59.23;99168.47;4474199;32;19984;-89
2021/12/07 07:21:25;;;;;;;;;;;;;;;1.13;59.24;99165.88;4474626;32;22498;-90
2021/12/07 07:23:50;;;;;;;;;;;;;;;1.20;59.24;99166.72;4474487;32;19976;-90
2021/12/07 07:26:16;;;;;;;;;;;;;;;1.14;59.23;99179.53;4474507;32;20137;-89
2021/12/07 07:28:41;;;;;;;;;;;;;;;1.39;59.25;99168.34;4474465;32;20011;-89
2021/12/07 07:31:07;;;;;;;;;;;;;;;1.27;59.25;99170.97;4474481;32;20330;-89
2021/12/07 07:33:32;;;;;;;;;;;;;;;1.25;59.24;99172.69;4474946;32;20359;-90
2021/12/07 07:35:58;;;;;;;;;;;;;;;1.32;59.24;99176.91;4474784;32;20040;-89
2021/12/07 07:38:23;;;;;;;;;;;;;;;1.35;59.25;99176.03;4474313;32;19988;-90
2021/12/07 07:40:48;;;;;;;;;;;;;;;1.50;59.26;99184.53;4474632;32;20777;-89
2021/12/07 07:43:16;;;;;;;;;;;;;;;1.44;59.25;99182.00;4473687;32;25816;-90
2021/12/07 07:45:41;;;;;;;;;;;;;;;1.38;59.25;99194.84;4473347;32;20539;-90
2021/12/07 07:48:06;;;;;;;;;;;;;;;1.42;59.26;99193.09;4472826;32;20104;-90
2021/12/07 07:50:31;;;;;;;;;;;;;;;1.32;59.24;99202.56;4472763;32;20327;-89
2021/12/07 07:52:57;;;;;;;;;;;;;;;1.44;59.25;99199.97;4472952;32;20006;-89
2021/12/07 07:55:22;;;;;;;;;;;;;;;1.51;59.26;99193.94;4472621;32;20553;-88
2021/12/07 07:57:47;;;;;;;;;;;;;;;1.50;59.26;99197.38;4472878;32;20018;-89
2021/12/07 08:00:15;;;;;;;;;;;;;;;1.64;59.27;99188.72;4472979;32;20015;-89
2021/12/07 08:02:40;;;;;;;;;;;;;;;1.65;59.26;99193.00;4473280;32;19983;-90
2021/12/07 08:05:06;;;;;;;;;;;;;;;1.64;59.27;99189.59;4472824;32;20010;-89
2021/12/07 08:07:31;;;;;;;;;;;;;;;1.69;59.26;99190.44;4472462;32;20052;-90
2021/12/07 08:09:56;;;;;;;;;;;;;;;1.50;59.26;99197.38;4472669;32;24155;-89
2021/12/07 08:12:21;;;;;;;;;;;;;;;1.54;59.26;99199.03;4472354;32;23053;-89
2021/12/07 08:14:46;;;;;;;;;;;;;;;1.44;59.25;99199.97;4485925;32;20015;-89
2021/12/07 08:17:12;;;;;;;;;;;;;;;1.47;59.25;99209.34;4472117;32;29025;-89
2021/12/07 08:19:37;;;;;;;;;;;;;;;1.58;59.26;99210.16;4472400;32;20000;-89
2021/12/07 08:22:03;;;;;;;;;;;;;;;1.74;59.27;99208.37;4472631;32;20326;-89
2021/12/07 08:24:28;;;;;;;;;;;;;;;1.72;59.27;99204.97;4473082;32;20008;-88
2021/12/07 08:26:53;;;;;;;;;;;;;;;1.76;59.26;99206.63;4472985;32;20276;-89
2021/12/07 08:29:18;;;;;;;;;;;;;;;1.89;59.28;99215.09;4472556;32;19992;-89
2021/12/07 08:31:44;;;;;;;;;;;;;;;1.85;59.28;99199.72;4472924;32;20018;-89
2021/12/07 08:34:09;;;;;;;;;;;;;;;1.86;59.28;99200.59;4472554;32;20301;-89
2021/12/07 08:36:34;;;;;;;;;;;;;;;1.79;59.27;99196.34;4473522;32;20309;-89
2021/12/07 08:38:59;;;;;;;;;;;;;;;1.90;59.28;99197.16;4472930;32;20261;-89
2021/12/07 08:41:24;;;;;;;;;;;;;;;2.09;59.29;99195.31;4485737;32;20313;-90
2021/12/07 08:43:50;;;;;;;;;;;;;;;2.25;59.30;99194.34;4472545;32;20035;-89
2021/12/07 08:46:15;;;;;;;;;;;;;;;2.46;59.31;99188.19;4472394;32;21923;-89
2021/12/07 08:48:41;;;;;;;;;;;;;;;2.39;59.31;99183.97;4472636;32;20332;-90
2021/12/07 08:51:07;;;;;;;;;;;;;;;2.35;59.30;99195.13;4472605;32;19980;-89
2021/12/07 08:53:34;;;;;;;;;;;;;;;2.34;59.30;99180.56;4472412;32;20012;-90
2021/12/07 09:01:27;;;;;;;;;;;;;;;2.31;59.30;99190.88;4485909;32;20583;-89
2021/12/07 09:03:53;;;;;;;;;;;;;;;2.47;59.31;99179.63;4472438;32;20000;-91
2021/12/07 09:06:18;;;;;;;;;;;;;;;2.42;59.30;99173.66;4472334;32;20014;-89
2021/12/07 09:08:44;;;;;;;;;;;;;;;2.47;59.31;99172.75;4471636;32;24453;-90
2021/12/07 09:11:10;;;;;;;;;;;;;;;2.57;59.31;99177.81;4472311;32;19999;-90
2021/12/07 09:13:35;;;;;;;;;;;;;;;2.50;59.32;99184.72;4472324;32;20009;-90
2021/12/07 09:16:01;;;;;;;;;;;;;;;2.58;59.33;99176.94;4472972;32;19999;-90
2021/12/07 09:18:26;;;;;;;;;;;;;;;2.66;59.32;99180.31;4471743;32;20057;-90
2021/12/07 09:20:51;;;;;;;;;;;;;;;2.53;59.31;99173.56;4472490;32;20002;-90
2021/12/07 09:23:17;;;;;;;;;;;;;;;2.58;59.32;99172.66;4472201;32;19999;-90
2021/12/07 09:25:42;;;;;;;;;;;;;;;2.68;59.33;99176.84;4471449;32;20022;-89
2021/12/07 09:28:08;;;;;;;;;;;;;;;2.68;59.32;99166.59;4472081;32;19976;-90
2021/12/07 09:30:33;;;;;;;;;;;;;;;2.59;59.32;99168.38;4485160;32;19992;-90
2021/12/07 09:32:58;;;;;;;;;;;;;;;2.52;59.31;99170.16;4471772;32;19984;-90
2021/12/07 09:35:24;;;;;;;;;;;;;;;2.64;59.32;99153.78;4472005;32;19992;-89
2021/12/07 09:37:49;;;;;;;;;;;;;;;2.73;59.33;99153.69;4472012;32;19981;-89
2021/12/07 09:40:15;;;;;;;;;;;;;;;2.82;59.34;99151.00;4471842;32;19996;-89
2021/12/07 09:42:40;;;;;;;;;;;;;;;2.88;59.34;99148.41;4472548;32;19985;-90
2021/12/07 09:45:06;;;;;;;;;;;;;;;3.09;59.36;99144.75;4472013;32;20008;-90
2021/12/07 09:47:31;;;;;;;;;;;;;;;3.15;59.35;99142.09;4471873;32;20003;-90
2021/12/07 09:49:56;;;;;;;;;;;;;;;3.19;59.35;99141.19;4471123;32;19984;-90
2021/12/07 09:52:22;;;;;;;;;;;;;;;3.24;59.36;99141.97;4471536;32;20008;-90
2021/12/07 09:54:47;;;;;;;;;;;;;;;3.29;59.36;99131.63;4471643;32;20048;-91
2021/12/07 09:57:12;;;;;;;;;;;;;;;3.12;59.35;99136.12;4471639;32;20024;-91
2021/12/07 09:59:38;;;;;;;;;;;;;;;3.12;59.35;99133.56;4484787;32;19992;-90
2021/12/07 10:02:06;;;;;;;;;;;;;;;3.07;59.34;99134.44;4471465;32;20000;-90
2021/12/07 10:04:31;;;;;;;;;;;;;;;3.05;59.35;99131.03;4471995;32;19996;-89
2021/12/07 10:06:57;;;;;;;;;;;;;;;2.94;59.35;99130.31;4471219;32;20025;-90
2021/12/07 10:09:22;;;;;;;;;;;;;;;3.16;59.35;99124.94;4471518;32;19988;-90
2021/12/07 10:11:52;;;;;;;;;;;;;;;3.37;59.36;99125.53;4471231;32;20011;-92
2021/12/07 10:14:17;;;;;;;;;;;;;;;3.43;59.36;99128.88;4471687;32;20000;-91
2021/12/07 10:16:46;;;;;;;;;;;;;;;3.44;59.37;99118.56;4472400;32;20029;-90
2021/12/07 10:19:11;;;;;;;;;;;;;;;3.48;59.37;99122.78;4472758;32;19971;-90
2021/12/07 10:21:41;;;;;;;;;;;;;;;3.44;59.36;99120.28;4471497;32;19985;-91
2021/12/07 10:24:09;;;;;;;;;;;;;;;3.31;59.36;99105.03;4471717;32;20014;-91
2021/12/07 10:26:40;;;;;;;;;;;;;;;3.29;59.35;99114.47;4471626;32;19969;-91
2021/12/07 10:29:13;;;;;;;;;;;;;;;3.44;59.36;99110.00;4471168;32;19988;-90
2021/12/07 10:31:38;;;;;;;;;;;;;;;3.45;59.37;99103.97;4471116;32;19992;-90
2021/12/07 10:34:07;;;;;;;;;;;;;;;3.63;59.38;99104.56;4484238;32;20007;-91
2021/12/07 10:36:34;;;;;;;;;;;;;;;3.82;59.38;99104.31;4471550;32;19984;-91
2021/12/07 10:38:59;;;;;;;;;;;;;;;3.55;59.38;99103.84;4473627;32;19988;-90
2021/12/07 10:41:26;;;;;;;;;;;;;;;3.47;59.37;99107.38;4486734;32;20000;-91
2021/12/07 10:43:53;;;;;;;;;;;;;;;3.52;59.37;99121.03;4473631;32;20014;-91
2021/12/07 10:46:25;;;;;;;;;;;;;;;3.48;59.37;99115.06;4473447;32;20033;-90
2021/12/07 10:48:51;;;;;;;;;;;;;;;3.50;59.37;99108.19;4473311;32;20029;-91
2021/12/07 10:51:16;;;;;;;;;;;;;;;3.43;59.36;99106.56;4473283;32;20000;-90
2021/12/07 10:53:51;;;;;;;;;;;;;;;3.49;59.37;99105.62;4473101;32;23293;-90
2021/12/07 10:56:31;;;;;;;;;;;;;;;3.45;59.36;99104.81;4473361;32;19944;-90
2021/12/07 10:59:03;;;;;;;;;;;;;;;3.57;59.37;99106.41;4473672;32;19976;-89
2021/12/07 11:01:36;;;;;;;;;;;;;;;3.52;59.37;99101.28;4473420;32;19992;-91
2021/12/07 11:04:20;;;;;;;;;;;;;;;3.63;59.38;99104.56;4486382;32;19960;-90
2021/12/07 11:07:04;;;;;;;;;;;;;;;3.65;59.38;99095.09;4486940;31;20710;-91
2021/12/07 11:09:29;;;;;;;;;;;;;;;3.75;59.38;99095.81;4486830;32;20333;-91
2021/12/07 11:12:05;;;;;;;;;;;;;;;3.38;59.36;99098.06;4473899;32;20043;-91
2021/12/07 11:14:38;;;;;;;;;;;;;;;3.35;59.36;99096.41;4486486;32;19996;-91
2021/12/07 11:17:03;;;;;;;;;;;;;;;3.45;59.36;99091.97;4473056;32;20073;-91
2021/12/07 11:19:29;;;;;;;;;;;;;;;3.64;59.38;99089.97;4473064;32;20060;-91
2021/12/07 11:21:54;;;;;;;;;;;;;;;3.45;59.36;99086.81;4486201;32;20000;-91
2021/12/07 11:24:20;;;;;;;;;;;;;;;3.60;59.37;99083.19;4473131;32;20016;-91
2021/12/07 11:29:42;;;;;;;;;;;;;;;3.73;59.38;99086.41;4487763;32;20033;-91
2021/12/07 11:32:08;;;;;;;;;;;;;;;3.74;59.38;99078.66;4475802;32;20010;-91
2021/12/07 11:34:39;;;;;;;;;;;;;;;3.88;59.39;99076.75;4474856;32;19997;-92
2021/12/07 11:37:07;;;;;;;;;;;;;;;3.80;59.39;99081.16;4474278;32;20011;-91
2021/12/07 11:39:37;;;;;;;;;;;;;;;4.12;59.40;99079.78;4474818;32;20030;-91
2021/12/07 11:42:09;;;;;;;;;;;;;;;3.98;59.40;99086.00;4474897;32;20004;-92
2021/12/07 11:44:44;;;;;;;;;;;;;;;4.23;59.41;99083.88;4474760;32;20006;-91
2021/12/07 11:47:10;;;;;;;;;;;;;;;4.17;59.41;99086.56;4473798;32;19973;-91
2021/12/07 11:49:37;;;;;;;;;;;;;;;4.23;59.41;99081.28;4473789;32;20012;-91
2021/12/07 11:52:03;;;;;;;;;;;;;;;4.13;59.41;99081.50;4474293;32;19994;-92
2021/12/07 11:54:29;;;;;;;;;;;;;;;4.11;59.40;99075.53;4474334;32;20036;-90
2021/12/07 11:56:54;;;;;;;;;;;;;;;4.17;59.41;99078.84;4474750;32;19955;-89
2021/12/07 11:59:19;;;;;;;;;;;;;;;3.83;59.38;99073.41;4473853;32;19976;-89
2021/12/07 12:01:45;;;;;;;;;;;;;;;3.96;59.39;99074.88;4474026;32;20046;-91
2021/12/07 12:04:11;;;;;;;;;;;;;;;4.07;59.40;99069.56;4474537;32;20001;-92
2021/12/07 12:06:36;;;;;;;;;;;;;;;3.49;59.37;99067.88;4474442;32;20028;-92
2021/12/07 12:09:01;;;;;;;;;;;;;;;3.62;59.38;99074.56;4474062;32;20037;-90
2021/12/07 12:11:29;;;;;;;;;;;;;;;3.65;59.38;99069.38;4473540;32;20021;-91
2021/12/07 12:14:13;;;;;;;;;;;;;;;3.70;59.38;99067.56;4487951;32;20000;-88
2021/12/07 12:16:47;;;;;;;;;;;;;;;3.46;59.37;99070.50;4488308;31;20003;-90
2021/12/07 12:19:17;;;;;;;;;;;;;;;3.65;59.38;99071.09;4487109;32;19984;-91
2021/12/07 12:21:42;;;;;;;;;;;;;;;3.68;59.37;99073.63;4473860;32;19992;-94
2021/12/07 12:24:16;;;;;;;;;;;;;;;3.77;59.39;99068.31;4487343;32;20029;-91
2021/12/07 12:26:44;;;;;;;;;;;;;;;3.77;59.39;99086.34;4486868;32;19992;-90
2021/12/07 12:29:17;;;;;;;;;;;;;;;3.64;59.38;99080.53;4487332;32;19976;-92
2021/12/07 12:31:44;;;;;;;;;;;;;;;3.74;59.38;99088.13;4474000;32;20011;-90
2021/12/07 12:34:19;;;;;;;;;;;;;;;3.97;59.39;99092.03;4474001;32;20004;-90
2021/12/07 12:36:53;;;;;;;;;;;;;;;3.62;59.38;99091.72;4474033;32;19976;-91
2021/12/07 12:39:18;;;;;;;;;;;;;;;3.61;59.38;99106.31;4474266;32;20044;-91
2021/12/07 12:41:44;;;;;;;;;;;;;;;3.59;59.37;99104.66;4474191;32;19988;-90
2021/12/07 12:44:10;;;;;;;;;;;;;;;3.89;59.39;99113.62;4474106;32;20314;-91
2021/12/07 12:46:37;;;;;;;;;;;;;;;3.89;59.39;99105.91;4474159;32;19972;-93
2021/12/07 12:49:07;;;;;;;;;;;;;;;4.01;59.40;99103.13;4474059;32;19992;-91
2021/12/07 12:51:43;;;;;;;;;;;;;;;4.06;59.41;99103.09;4474093;32;20060;-90
2021/12/07 12:54:09;;;;;;;;;;;;;;;4.20;59.40;99114.00;4487266;32;20038;-91
2021/12/07 12:56:36;;;;;;;;;;;;;;;4.26;59.41;99109.59;4473884;32;20313;-90
2021/12/07 12:59:03;;;;;;;;;;;;;;;4.18;59.41;99119.16;4473701;32;20044;-90
2021/12/07 13:01:28;;;;;;;;;;;;;;;4.22;59.41;99117.37;4473795;32;19998;-91
2021/12/07 13:03:55;;;;;;;;;;;;;;;4.06;59.41;99126.25;4487348;32;20258;-93
2021/12/07 13:06:42;;;;;;;;;;;;;;;4.12;59.40;99127.00;4474140;32;19999;-90
2021/12/07 13:09:08;;;;;;;;;;;;;;;4.22;59.41;99127.69;4487203;32;19984;-90
2021/12/07 13:11:37;;;;;;;;;;;;;;;3.94;59.39;99130.69;4486486;32;20355;-91
2021/12/07 13:14:12;;;;;;;;;;;;;;;4.04;59.40;99130.59;4473299;32;19996;-90
2021/12/07 13:16:39;;;;;;;;;;;;;;;3.98;59.40;99129.78;4473477;32;20003;-91
2021/12/07 13:19:06;;;;;;;;;;;;;;;3.86;59.39;99134.28;4486551;32;20036;-91
2021/12/07 13:21:32;;;;;;;;;;;;;;;3.70;59.38;99136.22;4473687;32;19988;-91
2021/12/07 13:24:01;;;;;;;;;;;;;;;3.70;59.38;99126.78;4473846;32;20000;-89
2021/12/07 13:26:27;;;;;;;;;;;;;;;3.95;59.39;99119.53;4486746;32;19944;-89
2021/12/07 13:29:11;;;;;;;;;;;;;;;3.88;59.39;99122.22;4473206;32;20011;-91
2021/12/07 13:31:43;;;;;;;;;;;;;;;3.56;59.37;99125.28;4487504;31;19980;-89
2021/12/07 13:34:08;;;;;;;;;;;;;;;3.56;59.37;99123.56;4486842;32;19992;-90
2021/12/07 13:36:42;;;;;;;;;;;;;;;3.67;59.38;99123.41;4473714;32;20294;-91
2021/12/07 13:39:08;;;;;;;;;;;;;;;3.62;59.38;99127.75;4486592;32;19989;-92
2021/12/07 13:41:33;;;;;;;;;;;;;;;3.61;59.38;99131.22;4486852;32;19992;-91
2021/12/07 13:43:59;;;;;;;;;;;;;;;3.89;59.39;99129.94;4486662;32;20000;-90
2021/12/07 13:46:25;;;;;;;;;;;;;;;3.96;59.39;99128.09;4472906;32;19995;-90
2021/12/07 13:48:51;;;;;;;;;;;;;;;3.89;59.39;99135.06;4473168;32;19968;-89
2021/12/07 13:51:17;;;;;;;;;;;;;;;3.89;59.39;99147.09;4473207;32;20002;-89
2021/12/07 13:53:42;;;;;;;;;;;;;;;3.75;59.38;99151.59;4472425;32;20127;-90
2021/12/07 13:56:07;;;;;;;;;;;;;;;3.81;59.38;99152.38;4472423;32;19984;-91
2021/12/07 13:58:49;;;;;;;;;;;;;;;3.72;59.38;99146.47;4486152;32;19980;-89
2021/12/07 14:01:15;;;;;;;;;;;;;;;3.95;59.39;99147.00;4486115;32;19995;-91
2021/12/07 14:03:43;;;;;;;;;;;;;;;3.81;59.38;99146.38;4472473;32;19984;-89
2021/12/07 14:06:09;;;;;;;;;;;;;;;3.83;59.38;99150.62;4472913;32;20381;-88
2021/12/07 14:08:34;;;;;;;;;;;;;;;3.86;59.39;99140.28;4487060;32;19992;-90
2021/12/07 14:10:59;;;;;;;;;;;;;;;3.83;59.40;99137.75;4485324;32;20544;-90
2021/12/07 14:13:25;;;;;;;;;;;;;;;3.81;59.39;99152.38;4487725;32;20418;-89
2021/12/07 14:15:50;;;;;;;;;;;;;;;3.69;59.39;99155.94;4474442;32;19984;-90
2021/12/07 14:18:16;;;;;;;;;;;;;;;3.67;59.38;99151.72;4474724;32;20301;-90
2021/12/07 14:20:54;;;;;;;;;;;;;;;3.73;59.38;99154.19;4487884;32;20033;-90
2021/12/07 14:23:29;;;;;;;;;;;;;;;3.84;59.39;99154.06;4488010;32;20011;-89
2021/12/07 14:26:13;;;;;;;;;;;;;;;3.89;59.39;99159.97;4474787;32;19995;-89
2021/12/07 14:28:42;;;;;;;;;;;;;;;3.82;59.39;99164.38;4489055;31;19969;-89
2021/12/07 14:31:09;;;;;;;;;;;;;;;3.75;59.38;99167.88;4487767;32;20012;-88
2021/12/07 14:33:39;;;;;;;;;;;;;;;3.91;59.40;99161.66;4488135;32;20010;-88
2021/12/07 14:36:04;;;;;;;;;;;;;;;3.56;59.37;99166.44;4488467;32;20329;-90
2021/12/07 14:38:31;;;;;;;;;;;;;;;3.58;59.37;99162.97;4488157;32;19999;-89
2021/12/07 14:40:59;;;;;;;;;;;;;;;3.58;59.37;99172.44;4475282;32;20660;-87
2021/12/07 14:43:24;;;;;;;;;;;;;;;3.56;59.37;99161.31;4488682;32;20004;-89
2021/12/07 14:45:49;;;;;;;;;;;;;;;3.30;59.35;99174.47;4474601;32;31130;-90